sensor_id;sensor_type;location;lat;lon;timestamp;P1;durP1;ratioP1;P2;durP2;ratioP2
3359;SDS011;1693;49.602;11.046;2022-08-23T00:01:25;10.00;;;6.90;;
3359;SDS011;1693;49.602;11.046;2022-08-23T00:03:54;8.57;;;7.30;;
3359;SDS011;1693;49.602;11.046;2022-08-23T00:06:25;8.20;;;7.50;;
3359;SDS011;1693;49.602;11.046;2022-08-23T00:08:53;9.90;;;7.90;;
3359;SDS011;1693;49.602;11.046;2022-08-23T00:11:26;9.50;;;8.60;;
3359;SDS011;1693;49.602;11.046;2022-08-23T00:13:55;9.77;;;8.77;;
3359;SDS011;1693;49.602;11.046;2022-08-23T00:16:25;9.30;;;8.40;;
3359;SDS011;1693;49.602;11.046;2022-08-23T00:18:53;9.00;;;8.30;;
3359;SDS011;1693;49.602;11.046;2022-08-23T00:21:20;8.60;;;7.80;;
3359;SDS011;1693;49.602;11.046;2022-08-23T00:23:47;8.10;;;7.50;;
3359;SDS011;1693;49.602;11.046;2022-08-23T00:26:15;9.30;;;8.43;;
3359;SDS011;1693;49.602;11.046;2022-08-23T00:28:42;9.27;;;8.30;;
3359;SDS011;1693;49.602;11.046;2022-08-23T00:31:09;10.07;;;8.70;;
3359;SDS011;1693;49.602;11.046;2022-08-23T00:33:37;10.80;;;9.90;;
3359;SDS011;1693;49.602;11.046;2022-08-23T00:36:05;10.53;;;9.63;;
3359;SDS011;1693;49.602;11.046;2022-08-23T00:38:32;12.87;;;9.60;;
3359;SDS011;1693;49.602;11.046;2022-08-23T00:40:59;9.20;;;8.50;;
3359;SDS011;1693;49.602;11.046;2022-08-23T00:43:27;10.33;;;9.33;;
3359;SDS011;1693;49.602;11.046;2022-08-23T00:46:16;10.80;;;9.77;;
3359;SDS011;1693;49.602;11.046;2022-08-23T00:49:12;10.73;;;9.63;;
3359;SDS011;1693;49.602;11.046;2022-08-23T00:51:43;10.73;;;9.83;;
3359;SDS011;1693;49.602;11.046;2022-08-23T00:54:12;11.37;;;10.23;;
3359;SDS011;1693;49.602;11.046;2022-08-23T00:56:42;11.93;;;8.80;;
3359;SDS011;1693;49.602;11.046;2022-08-23T00:59:09;11.00;;;10.00;;
3359;SDS011;1693;49.602;11.046;2022-08-23T01:01:36;10.73;;;9.73;;
3359;SDS011;1693;49.602;11.046;2022-08-23T01:04:03;9.53;;;8.77;;
3359;SDS011;1693;49.602;11.046;2022-08-23T01:06:32;12.23;;;10.10;;
3359;SDS011;1693;49.602;11.046;2022-08-23T01:09:07;10.63;;;9.77;;
3359;SDS011;1693;49.602;11.046;2022-08-23T01:11:38;12.10;;;10.90;;
3359;SDS011;1693;49.602;11.046;2022-08-23T01:14:09;11.83;;;10.80;;
3359;SDS011;1693;49.602;11.046;2022-08-23T01:16:40;12.33;;;11.03;;
3359;SDS011;1693;49.602;11.046;2022-08-23T01:19:13;11.10;;;10.10;;
3359;SDS011;1693;49.602;11.046;2022-08-23T01:21:51;12.67;;;11.43;;
3359;SDS011;1693;49.602;11.046;2022-08-23T01:24:24;11.23;;;10.33;;
3359;SDS011;1693;49.602;11.046;2022-08-23T01:26:52;12.67;;;11.47;;
3359;SDS011;1693;49.602;11.046;2022-08-23T01:29:19;13.00;;;11.57;;
3359;SDS011;1693;49.602;11.046;2022-08-23T01:31:46;11.90;;;10.87;;
3359;SDS011;1693;49.602;11.046;2022-08-23T01:34:14;13.43;;;12.33;;
3359;SDS011;1693;49.602;11.046;2022-08-23T01:36:42;12.83;;;11.67;;
3359;SDS011;1693;49.602;11.046;2022-08-23T01:39:09;13.73;;;12.30;;
3359;SDS011;1693;49.602;11.046;2022-08-23T01:41:38;13.10;;;11.90;;
3359;SDS011;1693;49.602;11.046;2022-08-23T01:44:06;14.40;;;13.07;;
3359;SDS011;1693;49.602;11.046;2022-08-23T01:46:33;13.50;;;12.40;;
3359;SDS011;1693;49.602;11.046;2022-08-23T01:49:01;14.33;;;12.97;;
3359;SDS011;1693;49.602;11.046;2022-08-23T01:51:30;14.80;;;12.90;;
3359;SDS011;1693;49.602;11.046;2022-08-23T01:53:57;14.50;;;13.10;;
3359;SDS011;1693;49.602;11.046;2022-08-23T01:56:24;16.13;;;13.20;;
3359;SDS011;1693;49.602;11.046;2022-08-23T01:58:54;13.80;;;12.70;;
3359;SDS011;1693;49.602;11.046;2022-08-23T02:01:21;14.50;;;13.30;;
3359;SDS011;1693;49.602;11.046;2022-08-23T02:03:48;14.50;;;13.20;;
3359;SDS011;1693;49.602;11.046;2022-08-23T02:06:16;14.53;;;13.10;;
3359;SDS011;1693;49.602;11.046;2022-08-23T02:08:45;13.23;;;12.03;;
3359;SDS011;1693;49.602;11.046;2022-08-23T02:11:29;13.57;;;12.47;;
3359;SDS011;1693;49.602;11.046;2022-08-23T02:14:02;13.00;;;12.00;;
3359;SDS011;1693;49.602;11.046;2022-08-23T02:16:32;15.80;;;12.63;;
3359;SDS011;1693;49.602;11.046;2022-08-23T02:19:01;13.93;;;12.70;;
3359;SDS011;1693;49.602;11.046;2022-08-23T02:21:30;14.80;;;13.27;;
3359;SDS011;1693;49.602;11.046;2022-08-23T02:23:57;14.60;;;12.20;;
3359;SDS011;1693;49.602;11.046;2022-08-23T02:26:25;14.80;;;12.60;;
3359;SDS011;1693;49.602;11.046;2022-08-23T02:28:52;14.67;;;13.27;;
3359;SDS011;1693;49.602;11.046;2022-08-23T02:31:21;16.30;;;13.70;;
3359;SDS011;1693;49.602;11.046;2022-08-23T02:33:48;15.87;;;12.37;;
3359;SDS011;1693;49.602;11.046;2022-08-23T02:36:15;14.17;;;12.87;;
3359;SDS011;1693;49.602;11.046;2022-08-23T02:38:42;15.03;;;13.63;;
3359;SDS011;1693;49.602;11.046;2022-08-23T02:41:10;14.90;;;13.63;;
3359;SDS011;1693;49.602;11.046;2022-08-23T02:43:38;13.40;;;12.17;;
3359;SDS011;1693;49.602;11.046;2022-08-23T02:46:05;13.77;;;11.90;;
3359;SDS011;1693;49.602;11.046;2022-08-23T02:48:34;13.60;;;11.13;;
3359;SDS011;1693;49.602;11.046;2022-08-23T02:51:03;14.83;;;13.33;;
3359;SDS011;1693;49.602;11.046;2022-08-23T02:53:31;14.47;;;13.17;;
3359;SDS011;1693;49.602;11.046;2022-08-23T02:55:59;13.60;;;12.37;;
3359;SDS011;1693;49.602;11.046;2022-08-23T02:58:26;13.50;;;12.30;;
3359;SDS011;1693;49.602;11.046;2022-08-23T03:00:53;13.20;;;12.00;;
3359;SDS011;1693;49.602;11.046;2022-08-23T03:03:20;14.00;;;12.60;;
3359;SDS011;1693;49.602;11.046;2022-08-23T03:05:49;12.60;;;11.37;;
3359;SDS011;1693;49.602;11.046;2022-08-23T03:08:16;13.53;;;12.33;;
3359;SDS011;1693;49.602;11.046;2022-08-23T03:10:44;15.00;;;13.70;;
3359;SDS011;1693;49.602;11.046;2022-08-23T03:13:12;15.27;;;12.20;;
3359;SDS011;1693;49.602;11.046;2022-08-23T03:15:40;13.13;;;12.00;;
3359;SDS011;1693;49.602;11.046;2022-08-23T03:18:08;13.10;;;12.10;;
3359;SDS011;1693;49.602;11.046;2022-08-23T03:20:37;13.33;;;12.13;;
3359;SDS011;1693;49.602;11.046;2022-08-23T03:23:07;12.17;;;10.87;;
3359;SDS011;1693;49.602;11.046;2022-08-23T03:25:34;15.67;;;13.40;;
3359;SDS011;1693;49.602;11.046;2022-08-23T03:28:03;16.40;;;12.00;;
3359;SDS011;1693;49.602;11.046;2022-08-23T03:30:30;13.90;;;12.80;;
3359;SDS011;1693;49.602;11.046;2022-08-23T03:32:58;12.77;;;11.60;;
3359;SDS011;1693;49.602;11.046;2022-08-23T03:35:26;15.27;;;13.67;;
3359;SDS011;1693;49.602;11.046;2022-08-23T03:37:53;13.80;;;12.50;;
3359;SDS011;1693;49.602;11.046;2022-08-23T03:40:21;14.47;;;13.17;;
3359;SDS011;1693;49.602;11.046;2022-08-23T03:42:48;13.17;;;11.83;;
3359;SDS011;1693;49.602;11.046;2022-08-23T03:45:16;14.77;;;13.27;;
3359;SDS011;1693;49.602;11.046;2022-08-23T03:47:44;14.07;;;12.87;;
3359;SDS011;1693;49.602;11.046;2022-08-23T03:50:11;13.70;;;12.40;;
3359;SDS011;1693;49.602;11.046;2022-08-23T03:52:38;13.77;;;12.43;;
3359;SDS011;1693;49.602;11.046;2022-08-23T03:55:06;15.00;;;13.40;;
3359;SDS011;1693;49.602;11.046;2022-08-23T03:57:35;15.43;;;14.17;;
3359;SDS011;1693;49.602;11.046;2022-08-23T04:00:02;17.50;;;13.70;;
3359;SDS011;1693;49.602;11.046;2022-08-23T04:02:32;23.70;;;15.00;;
3359;SDS011;1693;49.602;11.046;2022-08-23T04:04:59;15.80;;;14.30;;
3359;SDS011;1693;49.602;11.046;2022-08-23T04:07:26;14.67;;;13.33;;
3359;SDS011;1693;49.602;11.046;2022-08-23T04:09:53;16.83;;;15.37;;
3359;SDS011;1693;49.602;11.046;2022-08-23T04:12:20;17.27;;;15.60;;
3359;SDS011;1693;49.602;11.046;2022-08-23T04:14:49;15.87;;;14.47;;
3359;SDS011;1693;49.602;11.046;2022-08-23T04:17:16;16.10;;;14.53;;
3359;SDS011;1693;49.602;11.046;2022-08-23T04:19:44;15.37;;;13.97;;
3359;SDS011;1693;49.602;11.046;2022-08-23T04:22:12;16.20;;;14.67;;
3359;SDS011;1693;49.602;11.046;2022-08-23T04:24:40;18.03;;;16.00;;
3359;SDS011;1693;49.602;11.046;2022-08-23T04:27:08;16.03;;;14.53;;
3359;SDS011;1693;49.602;11.046;2022-08-23T04:29:35;18.77;;;15.37;;
3359;SDS011;1693;49.602;11.046;2022-08-23T04:32:05;16.10;;;14.70;;
3359;SDS011;1693;49.602;11.046;2022-08-23T04:34:34;15.63;;;14.23;;
3359;SDS011;1693;49.602;11.046;2022-08-23T04:37:04;16.50;;;15.00;;
3359;SDS011;1693;49.602;11.046;2022-08-23T04:39:31;15.90;;;14.50;;
3359;SDS011;1693;49.602;11.046;2022-08-23T04:42:18;14.77;;;13.57;;
3359;SDS011;1693;49.602;11.046;2022-08-23T04:44:45;16.37;;;14.93;;
3359;SDS011;1693;49.602;11.046;2022-08-23T04:47:13;15.87;;;14.30;;
3359;SDS011;1693;49.602;11.046;2022-08-23T04:49:41;16.43;;;15.03;;
3359;SDS011;1693;49.602;11.046;2022-08-23T04:52:08;14.97;;;13.67;;
3359;SDS011;1693;49.602;11.046;2022-08-23T04:54:35;15.27;;;13.77;;
3359;SDS011;1693;49.602;11.046;2022-08-23T04:57:02;15.87;;;14.27;;
3359;SDS011;1693;49.602;11.046;2022-08-23T04:59:29;15.20;;;13.63;;
3359;SDS011;1693;49.602;11.046;2022-08-23T05:01:56;14.03;;;12.90;;
3359;SDS011;1693;49.602;11.046;2022-08-23T05:04:25;16.20;;;14.90;;
3359;SDS011;1693;49.602;11.046;2022-08-23T05:06:52;15.50;;;13.90;;
3359;SDS011;1693;49.602;11.046;2022-08-23T05:09:20;15.17;;;13.87;;
3359;SDS011;1693;49.602;11.046;2022-08-23T05:11:50;14.60;;;13.30;;
3359;SDS011;1693;49.602;11.046;2022-08-23T05:14:17;16.00;;;14.60;;
3359;SDS011;1693;49.602;11.046;2022-08-23T05:16:44;13.70;;;12.50;;
3359;SDS011;1693;49.602;11.046;2022-08-23T05:19:12;14.27;;;12.77;;
3359;SDS011;1693;49.602;11.046;2022-08-23T05:21:40;12.90;;;11.97;;
3359;SDS011;1693;49.602;11.046;2022-08-23T05:24:07;14.00;;;12.10;;
3359;SDS011;1693;49.602;11.046;2022-08-23T05:26:35;13.77;;;12.57;;
3359;SDS011;1693;49.602;11.046;2022-08-23T05:29:02;15.77;;;14.30;;
3359;SDS011;1693;49.602;11.046;2022-08-23T05:31:29;15.00;;;12.97;;
3359;SDS011;1693;49.602;11.046;2022-08-23T05:33:57;13.30;;;12.10;;
3359;SDS011;1693;49.602;11.046;2022-08-23T05:36:24;15.80;;;11.80;;
3359;SDS011;1693;49.602;11.046;2022-08-23T05:38:53;13.27;;;12.17;;
3359;SDS011;1693;49.602;11.046;2022-08-23T05:41:20;13.93;;;12.70;;
3359;SDS011;1693;49.602;11.046;2022-08-23T05:43:47;12.63;;;11.53;;
3359;SDS011;1693;49.602;11.046;2022-08-23T05:46:15;12.97;;;11.77;;
3359;SDS011;1693;49.602;11.046;2022-08-23T05:48:45;12.80;;;11.70;;
3359;SDS011;1693;49.602;11.046;2022-08-23T05:51:14;11.97;;;10.87;;
3359;SDS011;1693;49.602;11.046;2022-08-23T05:53:42;11.97;;;10.87;;
3359;SDS011;1693;49.602;11.046;2022-08-23T05:56:12;12.13;;;8.93;;
3359;SDS011;1693;49.602;11.046;2022-08-23T05:58:40;10.57;;;9.57;;
3359;SDS011;1693;49.602;11.046;2022-08-23T06:01:08;9.77;;;8.57;;
3359;SDS011;1693;49.602;11.046;2022-08-23T06:03:36;10.73;;;9.83;;
3359;SDS011;1693;49.602;11.046;2022-08-23T06:06:04;8.97;;;8.30;;
3359;SDS011;1693;49.602;11.046;2022-08-23T06:08:32;10.10;;;9.20;;
3359;SDS011;1693;49.602;11.046;2022-08-23T06:11:00;9.97;;;8.97;;
3359;SDS011;1693;49.602;11.046;2022-08-23T06:13:30;9.40;;;8.70;;
3359;SDS011;1693;49.602;11.046;2022-08-23T06:15:58;11.90;;;9.13;;
3359;SDS011;1693;49.602;11.046;2022-08-23T06:18:26;9.00;;;8.20;;
3359;SDS011;1693;49.602;11.046;2022-08-23T06:20:59;9.33;;;8.53;;
3359;SDS011;1693;49.602;11.046;2022-08-23T06:23:28;9.20;;;8.30;;
3359;SDS011;1693;49.602;11.046;2022-08-23T06:25:56;9.33;;;7.23;;
3359;SDS011;1693;49.602;11.046;2022-08-23T06:28:24;7.87;;;7.07;;
3359;SDS011;1693;49.602;11.046;2022-08-23T06:30:56;6.93;;;6.33;;
3359;SDS011;1693;49.602;11.046;2022-08-23T06:33:23;7.73;;;6.77;;
3359;SDS011;1693;49.602;11.046;2022-08-23T06:35:59;84.67;;;58.23;;
3359;SDS011;1693;49.602;11.046;2022-08-23T06:38:28;21.30;;;18.40;;
3359;SDS011;1693;49.602;11.046;2022-08-23T06:40:58;12.73;;;10.43;;
3359;SDS011;1693;49.602;11.046;2022-08-23T06:43:27;15.63;;;10.10;;
3359;SDS011;1693;49.602;11.046;2022-08-23T06:45:55;10.17;;;8.67;;
3359;SDS011;1693;49.602;11.046;2022-08-23T06:48:32;9.80;;;6.40;;
3359;SDS011;1693;49.602;11.046;2022-08-23T06:51:00;8.90;;;6.13;;
3359;SDS011;1693;49.602;11.046;2022-08-23T06:53:27;7.57;;;6.40;;
3359;SDS011;1693;49.602;11.046;2022-08-23T06:55:54;5.93;;;5.43;;
3359;SDS011;1693;49.602;11.046;2022-08-23T06:58:21;5.43;;;5.03;;
3359;SDS011;1693;49.602;11.046;2022-08-23T07:00:49;6.33;;;5.73;;
3359;SDS011;1693;49.602;11.046;2022-08-23T07:03:17;7.63;;;5.10;;
3359;SDS011;1693;49.602;11.046;2022-08-23T07:05:45;8.20;;;5.40;;
3359;SDS011;1693;49.602;11.046;2022-08-23T07:08:13;8.20;;;5.30;;
3359;SDS011;1693;49.602;11.046;2022-08-23T07:10:40;6.20;;;5.13;;
3359;SDS011;1693;49.602;11.046;2022-08-23T07:13:07;4.93;;;4.40;;
3359;SDS011;1693;49.602;11.046;2022-08-23T07:15:34;5.17;;;4.27;;
3359;SDS011;1693;49.602;11.046;2022-08-23T07:18:01;4.60;;;4.20;;
3359;SDS011;1693;49.602;11.046;2022-08-23T07:20:31;10.77;;;4.43;;
3359;SDS011;1693;49.602;11.046;2022-08-23T07:22:57;9.03;;;4.67;;
3359;SDS011;1693;49.602;11.046;2022-08-23T07:25:26;6.77;;;4.57;;
3359;SDS011;1693;49.602;11.046;2022-08-23T07:27:53;5.33;;;4.50;;
3359;SDS011;1693;49.602;11.046;2022-08-23T07:30:20;4.57;;;4.10;;
3359;SDS011;1693;49.602;11.046;2022-08-23T07:32:47;9.43;;;5.03;;
3359;SDS011;1693;49.602;11.046;2022-08-23T07:35:14;5.07;;;4.67;;
3359;SDS011;1693;49.602;11.046;2022-08-23T07:37:48;4.77;;;4.27;;
3359;SDS011;1693;49.602;11.046;2022-08-23T07:40:17;5.13;;;4.07;;
3359;SDS011;1693;49.602;11.046;2022-08-23T07:42:44;4.90;;;4.50;;
3359;SDS011;1693;49.602;11.046;2022-08-23T07:45:13;4.23;;;3.93;;
3359;SDS011;1693;49.602;11.046;2022-08-23T07:47:42;5.23;;;3.77;;
3359;SDS011;1693;49.602;11.046;2022-08-23T07:50:11;5.33;;;3.40;;
3359;SDS011;1693;49.602;11.046;2022-08-23T07:52:39;6.40;;;3.07;;
3359;SDS011;1693;49.602;11.046;2022-08-23T07:55:11;6.30;;;5.40;;
3359;SDS011;1693;49.602;11.046;2022-08-23T07:57:39;4.87;;;4.30;;
3359;SDS011;1693;49.602;11.046;2022-08-23T08:00:10;3.23;;;3.00;;
3359;SDS011;1693;49.602;11.046;2022-08-23T08:02:46;5.83;;;3.80;;
3359;SDS011;1693;49.602;11.046;2022-08-23T08:05:13;7.43;;;3.50;;
3359;SDS011;1693;49.602;11.046;2022-08-23T08:07:44;4.40;;;4.00;;
3359;SDS011;1693;49.602;11.046;2022-08-23T08:10:19;5.90;;;3.90;;
3359;SDS011;1693;49.602;11.046;2022-08-23T08:12:49;3.20;;;2.90;;
3359;SDS011;1693;49.602;11.046;2022-08-23T08:15:20;4.10;;;3.37;;
3359;SDS011;1693;49.602;11.046;2022-08-23T08:17:50;4.97;;;2.80;;
3359;SDS011;1693;49.602;11.046;2022-08-23T08:20:19;4.60;;;3.60;;
3359;SDS011;1693;49.602;11.046;2022-08-23T08:22:49;2.33;;;2.13;;
3359;SDS011;1693;49.602;11.046;2022-08-23T08:25:19;2.33;;;2.13;;
3359;SDS011;1693;49.602;11.046;2022-08-23T08:27:48;3.23;;;2.17;;
3359;SDS011;1693;49.602;11.046;2022-08-23T08:30:18;2.50;;;2.30;;
3359;SDS011;1693;49.602;11.046;2022-08-23T08:32:45;2.50;;;1.83;;
3359;SDS011;1693;49.602;11.046;2022-08-23T08:35:12;3.30;;;2.47;;
3359;SDS011;1693;49.602;11.046;2022-08-23T08:37:41;3.47;;;2.60;;
3359;SDS011;1693;49.602;11.046;2022-08-23T08:40:09;2.23;;;2.03;;
3359;SDS011;1693;49.602;11.046;2022-08-23T08:42:43;2.33;;;1.70;;
3359;SDS011;1693;49.602;11.046;2022-08-23T08:45:28;2.83;;;1.73;;
3359;SDS011;1693;49.602;11.046;2022-08-23T08:48:11;2.07;;;1.60;;
3359;SDS011;1693;49.602;11.046;2022-08-23T08:50:46;2.47;;;1.73;;
3359;SDS011;1693;49.602;11.046;2022-08-23T08:53:20;5.97;;;1.97;;
3359;SDS011;1693;49.602;11.046;2022-08-23T08:55:54;2.23;;;1.67;;
3359;SDS011;1693;49.602;11.046;2022-08-23T08:58:32;2.00;;;1.80;;
3359;SDS011;1693;49.602;11.046;2022-08-23T09:01:10;3.40;;;1.87;;
3359;SDS011;1693;49.602;11.046;2022-08-23T09:03:39;2.73;;;1.63;;
3359;SDS011;1693;49.602;11.046;2022-08-23T09:06:13;4.90;;;2.13;;
3359;SDS011;1693;49.602;11.046;2022-08-23T09:09:03;1.97;;;1.60;;
3359;SDS011;1693;49.602;11.046;2022-08-23T09:12:00;1.47;;;1.20;;
3359;SDS011;1693;49.602;11.046;2022-08-23T09:14:41;2.70;;;1.40;;
3359;SDS011;1693;49.602;11.046;2022-08-23T09:17:23;1.60;;;1.40;;
3359;SDS011;1693;49.602;11.046;2022-08-23T09:20:00;2.13;;;1.30;;
3359;SDS011;1693;49.602;11.046;2022-08-23T09:22:35;1.97;;;1.37;;
3359;SDS011;1693;49.602;11.046;2022-08-23T09:25:07;1.63;;;1.50;;
3359;SDS011;1693;49.602;11.046;2022-08-23T09:27:36;2.23;;;1.30;;
3359;SDS011;1693;49.602;11.046;2022-08-23T09:30:06;3.67;;;1.47;;
3359;SDS011;1693;49.602;11.046;2022-08-23T09:32:36;1.30;;;1.00;;
3359;SDS011;1693;49.602;11.046;2022-08-23T09:35:07;3.33;;;1.90;;
3359;SDS011;1693;49.602;11.046;2022-08-23T09:37:48;1.90;;;1.50;;
3359;SDS011;1693;49.602;11.046;2022-08-23T09:40:28;1.40;;;1.20;;
3359;SDS011;1693;49.602;11.046;2022-08-23T09:43:03;5.13;;;1.37;;
3359;SDS011;1693;49.602;11.046;2022-08-23T09:45:41;1.50;;;1.10;;
3359;SDS011;1693;49.602;11.046;2022-08-23T09:48:35;2.10;;;1.00;;
3359;SDS011;1693;49.602;11.046;2022-08-23T09:51:06;6.67;;;1.87;;
3359;SDS011;1693;49.602;11.046;2022-08-23T09:53:44;1.30;;;0.90;;
3359;SDS011;1693;49.602;11.046;2022-08-23T09:56:16;2.70;;;1.63;;
3359;SDS011;1693;49.602;11.046;2022-08-23T09:58:49;2.33;;;1.67;;
3359;SDS011;1693;49.602;11.046;2022-08-23T10:01:20;1.77;;;1.67;;
3359;SDS011;1693;49.602;11.046;2022-08-23T10:06:37;1.73;;;1.23;;
3359;SDS011;1693;49.602;11.046;2022-08-23T10:09:08;2.40;;;1.20;;
3359;SDS011;1693;49.602;11.046;2022-08-23T10:11:47;2.20;;;1.17;;
3359;SDS011;1693;49.602;11.046;2022-08-23T10:14:17;1.80;;;1.10;;
3359;SDS011;1693;49.602;11.046;2022-08-23T10:16:55;2.30;;;1.70;;
3359;SDS011;1693;49.602;11.046;2022-08-23T10:19:33;1.93;;;1.00;;
3359;SDS011;1693;49.602;11.046;2022-08-23T10:22:10;1.73;;;1.10;;
3359;SDS011;1693;49.602;11.046;2022-08-23T10:24:45;3.13;;;1.80;;
3359;SDS011;1693;49.602;11.046;2022-08-23T10:27:25;2.53;;;1.00;;
3359;SDS011;1693;49.602;11.046;2022-08-23T10:30:32;2.50;;;1.00;;
3359;SDS011;1693;49.602;11.046;2022-08-23T10:33:11;1.40;;;0.90;;
3359;SDS011;1693;49.602;11.046;2022-08-23T10:35:45;1.47;;;0.87;;
3359;SDS011;1693;49.602;11.046;2022-08-23T10:41:15;1.40;;;1.00;;
3359;SDS011;1693;49.602;11.046;2022-08-23T10:43:53;3.73;;;1.93;;
3359;SDS011;1693;49.602;11.046;2022-08-23T10:46:29;2.07;;;1.57;;
3359;SDS011;1693;49.602;11.046;2022-08-23T10:49:01;2.17;;;1.30;;
3359;SDS011;1693;49.602;11.046;2022-08-23T10:51:35;1.73;;;1.10;;
3359;SDS011;1693;49.602;11.046;2022-08-23T10:54:08;1.80;;;1.40;;
3359;SDS011;1693;49.602;11.046;2022-08-23T10:56:48;2.40;;;1.40;;
3359;SDS011;1693;49.602;11.046;2022-08-23T10:59:17;4.60;;;1.80;;
3359;SDS011;1693;49.602;11.046;2022-08-23T11:01:50;2.93;;;1.43;;
3359;SDS011;1693;49.602;11.046;2022-08-23T11:04:33;1.77;;;1.10;;
3359;SDS011;1693;49.602;11.046;2022-08-23T11:07:14;1.80;;;1.20;;
3359;SDS011;1693;49.602;11.046;2022-08-23T11:09:49;10.83;;;3.60;;
3359;SDS011;1693;49.602;11.046;2022-08-23T11:12:24;2.57;;;1.20;;
3359;SDS011;1693;49.602;11.046;2022-08-23T11:15:07;7.30;;;1.60;;
3359;SDS011;1693;49.602;11.046;2022-08-23T11:18:02;2.83;;;1.20;;
3359;SDS011;1693;49.602;11.046;2022-08-23T11:29:34;5.70;;;2.07;;
3359;SDS011;1693;49.602;11.046;2022-08-23T11:35:05;2.80;;;1.10;;
3359;SDS011;1693;49.602;11.046;2022-08-23T11:37:51;3.10;;;1.30;;
3359;SDS011;1693;49.602;11.046;2022-08-23T11:40:36;1.40;;;1.13;;
3359;SDS011;1693;49.602;11.046;2022-08-23T11:43:23;7.33;;;1.20;;
3359;SDS011;1693;49.602;11.046;2022-08-23T11:46:15;1.53;;;1.17;;
3359;SDS011;1693;49.602;11.046;2022-08-23T11:49:21;2.27;;;1.30;;
3359;SDS011;1693;49.602;11.046;2022-08-23T11:51:58;1.73;;;1.50;;
3359;SDS011;1693;49.602;11.046;2022-08-23T11:54:43;2.37;;;1.60;;
3359;SDS011;1693;49.602;11.046;2022-08-23T11:57:31;2.40;;;2.00;;
3359;SDS011;1693;49.602;11.046;2022-08-23T12:00:17;2.43;;;1.10;;
3359;SDS011;1693;49.602;11.046;2022-08-23T12:02:56;2.67;;;1.50;;
3359;SDS011;1693;49.602;11.046;2022-08-23T12:08:31;2.00;;;1.40;;
3359;SDS011;1693;49.602;11.046;2022-08-23T12:11:17;1.57;;;1.17;;
3359;SDS011;1693;49.602;11.046;2022-08-23T12:13:50;4.80;;;3.00;;
3359;SDS011;1693;49.602;11.046;2022-08-23T12:16:33;2.37;;;1.40;;
3359;SDS011;1693;49.602;11.046;2022-08-23T12:19:08;2.23;;;1.40;;
3359;SDS011;1693;49.602;11.046;2022-08-23T12:21:41;5.60;;;1.30;;
3359;SDS011;1693;49.602;11.046;2022-08-23T12:24:13;1.70;;;1.30;;
3359;SDS011;1693;49.602;11.046;2022-08-23T12:26:50;1.47;;;1.00;;
3359;SDS011;1693;49.602;11.046;2022-08-23T12:29:51;2.33;;;1.17;;
3359;SDS011;1693;49.602;11.046;2022-08-23T12:32:27;2.20;;;1.20;;
3359;SDS011;1693;49.602;11.046;2022-08-23T12:35:08;4.90;;;1.10;;
3359;SDS011;1693;49.602;11.046;2022-08-23T12:37:56;2.10;;;1.50;;
3359;SDS011;1693;49.602;11.046;2022-08-23T12:40:30;4.23;;;1.30;;
3359;SDS011;1693;49.602;11.046;2022-08-23T12:43:05;2.13;;;1.10;;
3359;SDS011;1693;49.602;11.046;2022-08-23T12:45:37;1.70;;;1.17;;
3359;SDS011;1693;49.602;11.046;2022-08-23T12:48:10;1.60;;;1.10;;
3359;SDS011;1693;49.602;11.046;2022-08-23T12:50:41;2.10;;;1.30;;
3359;SDS011;1693;49.602;11.046;2022-08-23T12:53:16;18.27;;;14.83;;
3359;SDS011;1693;49.602;11.046;2022-08-23T12:55:58;2.20;;;1.50;;
3359;SDS011;1693;49.602;11.046;2022-08-23T12:58:31;2.67;;;1.77;;
3359;SDS011;1693;49.602;11.046;2022-08-23T13:01:04;2.53;;;1.50;;
3359;SDS011;1693;49.602;11.046;2022-08-23T13:03:43;1.77;;;0.90;;
3359;SDS011;1693;49.602;11.046;2022-08-23T13:06:18;2.17;;;1.20;;
3359;SDS011;1693;49.602;11.046;2022-08-23T13:08:51;1.60;;;0.90;;
3359;SDS011;1693;49.602;11.046;2022-08-23T13:11:24;1.80;;;1.00;;
3359;SDS011;1693;49.602;11.046;2022-08-23T13:13:56;1.70;;;1.00;;
3359;SDS011;1693;49.602;11.046;2022-08-23T13:16:27;2.50;;;1.40;;
3359;SDS011;1693;49.602;11.046;2022-08-23T13:21:42;1.70;;;1.03;;
3359;SDS011;1693;49.602;11.046;2022-08-23T13:24:29;2.00;;;1.10;;
3359;SDS011;1693;49.602;11.046;2022-08-23T13:27:12;1.73;;;1.00;;
3359;SDS011;1693;49.602;11.046;2022-08-23T13:29:52;3.13;;;1.40;;
3359;SDS011;1693;49.602;11.046;2022-08-23T13:32:26;2.73;;;1.00;;
3359;SDS011;1693;49.602;11.046;2022-08-23T13:38:00;3.63;;;2.83;;
3359;SDS011;1693;49.602;11.046;2022-08-23T13:40:39;3.57;;;1.80;;
3359;SDS011;1693;49.602;11.046;2022-08-23T13:43:18;4.50;;;2.50;;
3359;SDS011;1693;49.602;11.046;2022-08-23T13:45:50;2.07;;;1.47;;
3359;SDS011;1693;49.602;11.046;2022-08-23T13:48:23;1.63;;;0.97;;
3359;SDS011;1693;49.602;11.046;2022-08-23T13:54:02;4.20;;;1.30;;
3359;SDS011;1693;49.602;11.046;2022-08-23T13:56:37;2.43;;;1.20;;
3359;SDS011;1693;49.602;11.046;2022-08-23T13:59:24;11.47;;;1.50;;
3359;SDS011;1693;49.602;11.046;2022-08-23T14:02:00;1.80;;;1.20;;
3359;SDS011;1693;49.602;11.046;2022-08-23T14:04:31;1.97;;;1.30;;
3359;SDS011;1693;49.602;11.046;2022-08-23T14:06:59;5.30;;;1.23;;
3359;SDS011;1693;49.602;11.046;2022-08-23T14:09:26;3.30;;;1.00;;
3359;SDS011;1693;49.602;11.046;2022-08-23T14:11:54;2.70;;;1.10;;
3359;SDS011;1693;49.602;11.046;2022-08-23T14:14:30;3.03;;;1.70;;
3359;SDS011;1693;49.602;11.046;2022-08-23T14:17:06;3.10;;;1.60;;
3359;SDS011;1693;49.602;11.046;2022-08-23T14:19:36;2.03;;;1.40;;
3359;SDS011;1693;49.602;11.046;2022-08-23T14:22:06;9.73;;;7.77;;
3359;SDS011;1693;49.602;11.046;2022-08-23T14:24:35;3.37;;;1.57;;
3359;SDS011;1693;49.602;11.046;2022-08-23T14:27:02;2.70;;;1.60;;
3359;SDS011;1693;49.602;11.046;2022-08-23T14:29:31;5.73;;;1.47;;
3359;SDS011;1693;49.602;11.046;2022-08-23T14:31:59;2.83;;;1.57;;
3359;SDS011;1693;49.602;11.046;2022-08-23T14:34:32;1.90;;;1.23;;
3359;SDS011;1693;49.602;11.046;2022-08-23T14:36:59;2.03;;;1.30;;
3359;SDS011;1693;49.602;11.046;2022-08-23T14:39:27;1.83;;;1.10;;
3359;SDS011;1693;49.602;11.046;2022-08-23T14:41:56;2.63;;;1.40;;
3359;SDS011;1693;49.602;11.046;2022-08-23T14:44:25;3.60;;;1.63;;
3359;SDS011;1693;49.602;11.046;2022-08-23T14:46:53;2.30;;;1.47;;
3359;SDS011;1693;49.602;11.046;2022-08-23T14:49:23;2.03;;;1.43;;
3359;SDS011;1693;49.602;11.046;2022-08-23T14:51:50;2.27;;;1.53;;
3359;SDS011;1693;49.602;11.046;2022-08-23T14:54:21;2.23;;;1.30;;
3359;SDS011;1693;49.602;11.046;2022-08-23T14:56:51;2.17;;;1.30;;
3359;SDS011;1693;49.602;11.046;2022-08-23T14:59:19;2.77;;;1.30;;
3359;SDS011;1693;49.602;11.046;2022-08-23T15:01:48;2.27;;;1.30;;
3359;SDS011;1693;49.602;11.046;2022-08-23T15:04:21;2.20;;;1.20;;
3359;SDS011;1693;49.602;11.046;2022-08-23T15:06:50;2.30;;;1.43;;
3359;SDS011;1693;49.602;11.046;2022-08-23T15:09:23;3.10;;;1.30;;
3359;SDS011;1693;49.602;11.046;2022-08-23T15:11:52;3.23;;;1.53;;
3359;SDS011;1693;49.602;11.046;2022-08-23T15:14:21;2.00;;;1.20;;
3359;SDS011;1693;49.602;11.046;2022-08-23T15:16:49;2.47;;;1.40;;
3359;SDS011;1693;49.602;11.046;2022-08-23T15:19:17;1.90;;;1.30;;
3359;SDS011;1693;49.602;11.046;2022-08-23T15:21:48;3.60;;;1.37;;
3359;SDS011;1693;49.602;11.046;2022-08-23T15:24:17;1.90;;;1.43;;
3359;SDS011;1693;49.602;11.046;2022-08-23T15:26:48;7.07;;;6.37;;
3359;SDS011;1693;49.602;11.046;2022-08-23T15:29:25;3.07;;;1.60;;
3359;SDS011;1693;49.602;11.046;2022-08-23T15:31:54;3.27;;;1.50;;
3359;SDS011;1693;49.602;11.046;2022-08-23T15:34:21;2.67;;;1.60;;
3359;SDS011;1693;49.602;11.046;2022-08-23T15:36:50;2.20;;;1.30;;
3359;SDS011;1693;49.602;11.046;2022-08-23T15:39:17;2.20;;;1.40;;
3359;SDS011;1693;49.602;11.046;2022-08-23T15:41:45;4.50;;;1.20;;
3359;SDS011;1693;49.602;11.046;2022-08-23T15:44:13;1.93;;;1.57;;
3359;SDS011;1693;49.602;11.046;2022-08-23T15:46:44;2.00;;;1.23;;